27°C Temp
19°C Dewpoint
% Humidity
Temperature
19 KM/H
12 MPH
10 KTS
230°
South West

Wind Speed
Clear
Conditions
Pressure 1008.92 (hPa) - 29.79 (in)
Visibility 6.2 (mi) - 10.0 (km)

Current Conditions
YPPH
Location 20(km)
Metar :YPPH 201200Z 23010KT CAVOK 27/19 Q1009
Wed 20th January 20:00 pm

Airport
  Metar Aviation API Data Provided by https://www.checkwx.com/ PHP scripts by weather34.com ©2021